sensor_id;sensor_type;location;lat;lon;timestamp;pressure;altitude;pressure_sealevel;temperature;humidity
69127;BME280;56688;50.234;19.292;2022-11-13T00:02:33;100129.57;;;6.21;83.44
69127;BME280;56688;50.234;19.292;2022-11-13T00:05:15;100132.47;;;6.23;83.60
69127;BME280;56688;50.234;19.292;2022-11-13T00:07:58;100132.61;;;6.26;83.55
69127;BME280;56688;50.234;19.292;2022-11-13T00:10:40;100131.06;;;6.29;83.75
69127;BME280;56688;50.234;19.292;2022-11-13T00:13:22;100122.00;;;6.30;83.81
69127;BME280;56688;50.234;19.292;2022-11-13T00:16:13;100122.55;;;6.27;83.78
69127;BME280;56688;50.234;19.292;2022-11-13T00:18:56;100120.27;;;6.29;83.79
69127;BME280;56688;50.234;19.292;2022-11-13T00:21:39;100124.67;;;6.34;83.81
69127;BME280;56688;50.234;19.292;2022-11-13T00:24:21;100119.20;;;6.38;83.65
69127;BME280;56688;50.234;19.292;2022-11-13T00:27:03;100118.67;;;6.38;83.33
69127;BME280;56688;50.234;19.292;2022-11-13T00:29:46;100123.54;;;6.30;83.66
69127;BME280;56688;50.234;19.292;2022-11-13T00:32:28;100129.52;;;6.31;83.34
69127;BME280;56688;50.234;19.292;2022-11-13T00:35:10;100123.58;;;6.34;83.47
69127;BME280;56688;50.234;19.292;2022-11-13T00:37:53;100127.54;;;6.38;83.62
69127;BME280;56688;50.234;19.292;2022-11-13T00:40:35;100128.73;;;6.43;83.62
69127;BME280;56688;50.234;19.292;2022-11-13T00:43:17;100123.35;;;6.48;83.27
69127;BME280;56688;50.234;19.292;2022-11-13T00:46:00;100118.30;;;6.54;83.35
69127;BME280;56688;50.234;19.292;2022-11-13T00:48:42;100115.95;;;6.52;82.81
69127;BME280;56688;50.234;19.292;2022-11-13T00:51:25;100119.21;;;6.49;82.97
69127;BME280;56688;50.234;19.292;2022-11-13T00:54:07;100118.54;;;6.49;83.07
69127;BME280;56688;50.234;19.292;2022-11-13T00:56:50;100117.99;;;6.45;82.69
69127;BME280;56688;50.234;19.292;2022-11-13T00:59:32;100110.49;;;6.43;82.99
69127;BME280;56688;50.234;19.292;2022-11-13T01:02:14;100106.07;;;6.48;83.01
69127;BME280;56688;50.234;19.292;2022-11-13T01:04:57;100107.61;;;6.53;83.06
69127;BME280;56688;50.234;19.292;2022-11-13T01:07:39;100105.31;;;6.52;82.52
69127;BME280;56688;50.234;19.292;2022-11-13T01:10:21;100102.00;;;6.50;82.53
69127;BME280;56688;50.234;19.292;2022-11-13T01:13:04;100106.55;;;6.48;82.97
69127;BME280;56688;50.234;19.292;2022-11-13T01:15:46;100107.49;;;6.48;82.53
69127;BME280;56688;50.234;19.292;2022-11-13T01:18:28;100101.13;;;6.49;82.78
69127;BME280;56688;50.234;19.292;2022-11-13T01:21:14;100101.48;;;6.51;82.85
69127;BME280;56688;50.234;19.292;2022-11-13T01:24:00;100103.61;;;6.56;83.04
69127;BME280;56688;50.234;19.292;2022-11-13T01:26:42;100101.96;;;6.61;82.98
69127;BME280;56688;50.234;19.292;2022-11-13T01:29:24;100099.09;;;6.65;83.01
69127;BME280;56688;50.234;19.292;2022-11-13T01:32:06;100095.59;;;6.70;83.17
69127;BME280;56688;50.234;19.292;2022-11-13T01:34:49;100098.85;;;6.71;82.60
69127;BME280;56688;50.234;19.292;2022-11-13T01:37:31;100093.30;;;6.72;82.57
69127;BME280;56688;50.234;19.292;2022-11-13T01:40:14;100088.47;;;6.75;82.61
69127;BME280;56688;50.234;19.292;2022-11-13T01:42:56;100085.15;;;6.78;82.45
69127;BME280;56688;50.234;19.292;2022-11-13T01:48:44;100074.73;;;6.82;82.25
69127;BME280;56688;50.234;19.292;2022-11-13T01:51:33;100073.80;;;6.83;81.86
69127;BME280;56688;50.234;19.292;2022-11-13T01:54:19;100077.19;;;6.83;81.76
69127;BME280;56688;50.234;19.292;2022-11-13T01:57:04;100074.17;;;6.83;81.68
69127;BME280;56688;50.234;19.292;2022-11-13T01:59:52;100068.66;;;6.83;81.83
69127;BME280;56688;50.234;19.292;2022-11-13T02:02:36;100067.55;;;6.85;81.64
69127;BME280;56688;50.234;19.292;2022-11-13T02:05:18;100064.17;;;6.86;81.42
69127;BME280;56688;50.234;19.292;2022-11-13T02:08:02;100054.77;;;6.84;81.16
69127;BME280;56688;50.234;19.292;2022-11-13T02:10:44;100047.58;;;6.79;80.95
69127;BME280;56688;50.234;19.292;2022-11-13T02:13:26;100044.73;;;6.68;80.89
69127;BME280;56688;50.234;19.292;2022-11-13T02:16:09;100043.75;;;6.60;81.10
69127;BME280;56688;50.234;19.292;2022-11-13T02:18:52;100043.48;;;6.53;81.38
69127;BME280;56688;50.234;19.292;2022-11-13T02:24:41;100035.55;;;6.46;81.76
69127;BME280;56688;50.234;19.292;2022-11-13T02:27:44;100037.05;;;6.45;82.07
69127;BME280;56688;50.234;19.292;2022-11-13T02:30:29;100029.65;;;6.42;82.35
69127;BME280;56688;50.234;19.292;2022-11-13T02:36:09;100038.77;;;6.41;82.57
69127;BME280;56688;50.234;19.292;2022-11-13T02:38:54;100036.58;;;6.38;82.22
69127;BME280;56688;50.234;19.292;2022-11-13T02:41:36;100036.16;;;6.34;82.43
69127;BME280;56688;50.234;19.292;2022-11-13T02:44:19;100036.58;;;6.31;82.60
69127;BME280;56688;50.234;19.292;2022-11-13T02:47:01;100037.52;;;6.28;82.92
69127;BME280;56688;50.234;19.292;2022-11-13T02:49:43;100037.61;;;6.34;82.99
69127;BME280;56688;50.234;19.292;2022-11-13T02:52:26;100041.49;;;6.36;82.87
69127;BME280;56688;50.234;19.292;2022-11-13T02:55:08;100037.72;;;6.34;83.23
69127;BME280;56688;50.234;19.292;2022-11-13T02:57:50;100043.01;;;6.35;83.43
69127;BME280;56688;50.234;19.292;2022-11-13T03:00:32;100048.20;;;6.38;83.50
69127;BME280;56688;50.234;19.292;2022-11-13T03:03:15;100047.20;;;6.42;83.46
69127;BME280;56688;50.234;19.292;2022-11-13T03:06:18;100038.67;;;6.47;83.24
69127;BME280;56688;50.234;19.292;2022-11-13T03:09:00;100031.20;;;6.52;83.36
69127;BME280;56688;50.234;19.292;2022-11-13T03:11:43;100039.48;;;6.54;82.98
69127;BME280;56688;50.234;19.292;2022-11-13T03:14:25;100038.80;;;6.52;83.24
69127;BME280;56688;50.234;19.292;2022-11-13T03:17:07;100036.75;;;6.49;82.78
69127;BME280;56688;50.234;19.292;2022-11-13T03:19:50;100032.81;;;6.45;82.86
69127;BME280;56688;50.234;19.292;2022-11-13T03:22:32;100025.17;;;6.41;82.82
69127;BME280;56688;50.234;19.292;2022-11-13T03:25:14;100027.58;;;6.37;82.92
69127;BME280;56688;50.234;19.292;2022-11-13T03:27:57;100032.19;;;6.35;83.38
69127;BME280;56688;50.234;19.292;2022-11-13T03:30:39;100041.48;;;6.32;83.34
69127;BME280;56688;50.234;19.292;2022-11-13T03:33:21;100037.38;;;6.30;83.63
69127;BME280;56688;50.234;19.292;2022-11-13T03:36:04;100034.48;;;6.31;83.60
69127;BME280;56688;50.234;19.292;2022-11-13T03:38:46;100037.52;;;6.33;83.79
69127;BME280;56688;50.234;19.292;2022-11-13T03:41:29;100050.44;;;6.34;83.98
69127;BME280;56688;50.234;19.292;2022-11-13T03:44:11;100051.58;;;6.36;83.85
69127;BME280;56688;50.234;19.292;2022-11-13T03:46:54;100053.14;;;6.36;83.67
69127;BME280;56688;50.234;19.292;2022-11-13T03:49:36;100060.44;;;6.36;83.70
69127;BME280;56688;50.234;19.292;2022-11-13T03:52:18;100065.70;;;6.32;84.07
69127;BME280;56688;50.234;19.292;2022-11-13T03:55:00;100068.05;;;6.27;83.95
69127;BME280;56688;50.234;19.292;2022-11-13T03:57:43;100068.64;;;6.26;84.37
69127;BME280;56688;50.234;19.292;2022-11-13T04:00:27;100069.52;;;6.26;84.24
69127;BME280;56688;50.234;19.292;2022-11-13T04:03:11;100067.08;;;6.28;84.27
69127;BME280;56688;50.234;19.292;2022-11-13T04:05:57;100065.20;;;6.32;84.51
69127;BME280;56688;50.234;19.292;2022-11-13T04:08:39;100061.69;;;6.36;84.54
69127;BME280;56688;50.234;19.292;2022-11-13T04:11:22;100055.77;;;6.41;84.09
69127;BME280;56688;50.234;19.292;2022-11-13T04:14:04;100050.17;;;6.40;83.97
69127;BME280;56688;50.234;19.292;2022-11-13T04:16:46;100047.31;;;6.38;84.14
69127;BME280;56688;50.234;19.292;2022-11-13T04:19:29;100047.14;;;6.36;83.85
69127;BME280;56688;50.234;19.292;2022-11-13T04:22:11;100048.76;;;6.34;84.43
69127;BME280;56688;50.234;19.292;2022-11-13T04:24:54;100049.23;;;6.34;84.22
69127;BME280;56688;50.234;19.292;2022-11-13T04:27:36;100054.83;;;6.37;83.98
69127;BME280;56688;50.234;19.292;2022-11-13T04:30:18;100050.73;;;6.40;84.04
69127;BME280;56688;50.234;19.292;2022-11-13T04:33:01;100049.03;;;6.41;83.94
69127;BME280;56688;50.234;19.292;2022-11-13T04:35:43;100048.46;;;6.39;83.84
69127;BME280;56688;50.234;19.292;2022-11-13T04:38:27;100050.06;;;6.37;83.71
69127;BME280;56688;50.234;19.292;2022-11-13T04:41:11;100043.64;;;6.38;83.69
69127;BME280;56688;50.234;19.292;2022-11-13T04:44:14;100047.14;;;6.36;83.73
69127;BME280;56688;50.234;19.292;2022-11-13T04:46:56;100052.11;;;6.34;83.61
69127;BME280;56688;50.234;19.292;2022-11-13T04:49:38;100055.96;;;6.30;83.89
69127;BME280;56688;50.234;19.292;2022-11-13T04:52:20;100059.14;;;6.28;83.81
69127;BME280;56688;50.234;19.292;2022-11-13T04:55:03;100057.34;;;6.24;83.56
69127;BME280;56688;50.234;19.292;2022-11-13T04:57:46;100061.16;;;6.18;84.00
69127;BME280;56688;50.234;19.292;2022-11-13T05:00:28;100060.47;;;6.13;83.74
69127;BME280;56688;50.234;19.292;2022-11-13T05:03:10;100062.02;;;6.11;84.10
69127;BME280;56688;50.234;19.292;2022-11-13T05:05:52;100060.64;;;6.09;84.09
69127;BME280;56688;50.234;19.292;2022-11-13T05:08:35;100059.04;;;6.09;84.28
69127;BME280;56688;50.234;19.292;2022-11-13T05:11:18;100058.86;;;6.07;84.34
69127;BME280;56688;50.234;19.292;2022-11-13T05:14:00;100060.26;;;6.05;84.33
69127;BME280;56688;50.234;19.292;2022-11-13T05:16:45;100059.67;;;6.01;84.43
69127;BME280;56688;50.234;19.292;2022-11-13T05:19:27;100058.63;;;5.99;84.50
69127;BME280;56688;50.234;19.292;2022-11-13T05:22:09;100053.59;;;5.98;84.04
69127;BME280;56688;50.234;19.292;2022-11-13T05:24:52;100053.39;;;5.95;84.81
69127;BME280;56688;50.234;19.292;2022-11-13T05:27:34;100059.52;;;5.96;84.48
69127;BME280;56688;50.234;19.292;2022-11-13T05:30:16;100051.21;;;5.96;84.31
69127;BME280;56688;50.234;19.292;2022-11-13T05:32:58;100048.77;;;5.96;84.36
69127;BME280;56688;50.234;19.292;2022-11-13T05:35:40;100051.16;;;5.95;84.08
69127;BME280;56688;50.234;19.292;2022-11-13T05:38:22;100047.80;;;5.90;84.03
69127;BME280;56688;50.234;19.292;2022-11-13T05:41:06;100048.79;;;5.80;83.65
69127;BME280;56688;50.234;19.292;2022-11-13T05:43:49;100047.09;;;5.72;83.92
69127;BME280;56688;50.234;19.292;2022-11-13T05:46:39;100048.73;;;5.67;84.00
69127;BME280;56688;50.234;19.292;2022-11-13T05:49:21;100046.66;;;5.64;84.21
69127;BME280;56688;50.234;19.292;2022-11-13T05:52:03;100044.70;;;5.62;84.04
69127;BME280;56688;50.234;19.292;2022-11-13T05:54:45;100041.22;;;5.56;84.24
69127;BME280;56688;50.234;19.292;2022-11-13T05:57:28;100037.32;;;5.54;84.57
69127;BME280;56688;50.234;19.292;2022-11-13T06:00:11;100037.05;;;5.55;84.54
69127;BME280;56688;50.234;19.292;2022-11-13T06:02:53;100041.89;;;5.57;84.58
69127;BME280;56688;50.234;19.292;2022-11-13T06:05:35;100039.42;;;5.59;84.94
69127;BME280;56688;50.234;19.292;2022-11-13T06:08:17;100043.28;;;5.62;84.91
69127;BME280;56688;50.234;19.292;2022-11-13T06:11:02;100041.79;;;5.63;85.09
69127;BME280;56688;50.234;19.292;2022-11-13T06:13:45;100040.59;;;5.63;84.88
69127;BME280;56688;50.234;19.292;2022-11-13T06:16:32;100047.39;;;5.62;84.85
69127;BME280;56688;50.234;19.292;2022-11-13T06:19:15;100050.73;;;5.55;84.37
69127;BME280;56688;50.234;19.292;2022-11-13T06:21:57;100049.23;;;5.51;85.00
69127;BME280;56688;50.234;19.292;2022-11-13T06:24:39;100054.17;;;5.51;85.28
69127;BME280;56688;50.234;19.292;2022-11-13T06:27:22;100055.22;;;5.56;85.04
69127;BME280;56688;50.234;19.292;2022-11-13T06:30:04;100047.77;;;5.56;85.68
69127;BME280;56688;50.234;19.292;2022-11-13T06:32:52;100047.77;;;5.54;85.31
69127;BME280;56688;50.234;19.292;2022-11-13T06:35:34;100049.64;;;5.53;85.61
69127;BME280;56688;50.234;19.292;2022-11-13T06:38:17;100048.56;;;5.57;85.81
69127;BME280;56688;50.234;19.292;2022-11-13T06:41:00;100044.37;;;5.62;85.70
69127;BME280;56688;50.234;19.292;2022-11-13T06:43:43;100039.91;;;5.64;85.61
69127;BME280;56688;50.234;19.292;2022-11-13T06:46:27;100046.13;;;5.73;85.78
69127;BME280;56688;50.234;19.292;2022-11-13T06:49:10;100044.19;;;5.80;86.00
69127;BME280;56688;50.234;19.292;2022-11-13T06:51:52;100043.23;;;5.83;86.02
69127;BME280;56688;50.234;19.292;2022-11-13T06:54:34;100039.52;;;5.82;85.41
69127;BME280;56688;50.234;19.292;2022-11-13T06:57:16;100031.80;;;5.84;85.28
69127;BME280;56688;50.234;19.292;2022-11-13T06:59:58;100030.20;;;5.89;85.69
69127;BME280;56688;50.234;19.292;2022-11-13T07:02:40;100031.95;;;5.96;86.02
69127;BME280;56688;50.234;19.292;2022-11-13T07:05:23;100038.08;;;6.04;85.58
69127;BME280;56688;50.234;19.292;2022-11-13T07:08:05;100028.06;;;6.07;85.28
69127;BME280;56688;50.234;19.292;2022-11-13T07:10:52;100031.85;;;6.10;85.69
69127;BME280;56688;50.234;19.292;2022-11-13T07:13:36;100029.33;;;6.13;85.14
69127;BME280;56688;50.234;19.292;2022-11-13T07:16:19;100030.57;;;6.13;84.90
69127;BME280;56688;50.234;19.292;2022-11-13T07:19:02;100032.00;;;6.16;84.86
69127;BME280;56688;50.234;19.292;2022-11-13T07:21:44;100024.73;;;6.20;84.82
69127;BME280;56688;50.234;19.292;2022-11-13T07:24:26;100017.52;;;6.28;84.67
69127;BME280;56688;50.234;19.292;2022-11-13T07:27:09;100014.27;;;6.33;84.31
69127;BME280;56688;50.234;19.292;2022-11-13T07:29:51;100013.84;;;6.39;84.54
69127;BME280;56688;50.234;19.292;2022-11-13T07:32:33;100015.23;;;6.39;83.74
69127;BME280;56688;50.234;19.292;2022-11-13T07:35:16;100021.23;;;6.35;83.65
69127;BME280;56688;50.234;19.292;2022-11-13T07:37:59;100018.13;;;6.38;83.72
69127;BME280;56688;50.234;19.292;2022-11-13T07:40:41;100020.92;;;6.43;83.76
69127;BME280;56688;50.234;19.292;2022-11-13T07:43:24;100020.88;;;6.46;83.73
69127;BME280;56688;50.234;19.292;2022-11-13T07:46:06;100019.09;;;6.48;83.76
69127;BME280;56688;50.234;19.292;2022-11-13T07:48:48;100020.19;;;6.50;83.57
69127;BME280;56688;50.234;19.292;2022-11-13T07:51:31;100017.81;;;6.55;83.74
69127;BME280;56688;50.234;19.292;2022-11-13T07:54:13;100014.21;;;6.62;83.72
69127;BME280;56688;50.234;19.292;2022-11-13T07:56:55;100016.30;;;6.69;83.55
69127;BME280;56688;50.234;19.292;2022-11-13T07:59:38;100016.80;;;6.74;83.03
69127;BME280;56688;50.234;19.292;2022-11-13T08:02:20;100020.18;;;6.76;83.48
69127;BME280;56688;50.234;19.292;2022-11-13T08:05:08;100022.36;;;6.86;83.25
69127;BME280;56688;50.234;19.292;2022-11-13T08:07:51;100028.16;;;6.93;82.70
69127;BME280;56688;50.234;19.292;2022-11-13T08:10:34;100025.92;;;6.94;82.14
69127;BME280;56688;50.234;19.292;2022-11-13T08:13:17;100029.02;;;6.99;82.66
69127;BME280;56688;50.234;19.292;2022-11-13T08:16:01;100026.24;;;7.03;81.85
69127;BME280;56688;50.234;19.292;2022-11-13T08:18:43;100029.38;;;7.06;81.76
69127;BME280;56688;50.234;19.292;2022-11-13T08:21:26;100025.34;;;7.07;81.79
69127;BME280;56688;50.234;19.292;2022-11-13T08:24:08;100026.55;;;7.14;81.94
69127;BME280;56688;50.234;19.292;2022-11-13T08:26:50;100022.73;;;7.23;81.94
69127;BME280;56688;50.234;19.292;2022-11-13T08:29:33;100019.91;;;7.28;81.28
69127;BME280;56688;50.234;19.292;2022-11-13T08:32:19;100018.88;;;7.27;80.71
69127;BME280;56688;50.234;19.292;2022-11-13T08:35:01;100017.55;;;7.30;81.09
69127;BME280;56688;50.234;19.292;2022-11-13T08:37:44;100017.52;;;7.33;81.13
69127;BME280;56688;50.234;19.292;2022-11-13T08:40:26;100015.71;;;7.37;80.94
69127;BME280;56688;50.234;19.292;2022-11-13T08:43:08;100017.11;;;7.43;81.04
69127;BME280;56688;50.234;19.292;2022-11-13T08:45:51;100016.91;;;7.46;80.75
69127;BME280;56688;50.234;19.292;2022-11-13T08:48:34;100021.20;;;7.47;80.33
69127;BME280;56688;50.234;19.292;2022-11-13T08:51:16;100026.04;;;7.51;80.53
69127;BME280;56688;50.234;19.292;2022-11-13T08:53:59;100029.16;;;7.56;80.71
69127;BME280;56688;50.234;19.292;2022-11-13T08:56:41;100028.05;;;7.61;80.84
69127;BME280;56688;50.234;19.292;2022-11-13T08:59:24;100030.27;;;7.66;80.44
69127;BME280;56688;50.234;19.292;2022-11-13T09:02:11;100028.70;;;7.66;79.73
69127;BME280;56688;50.234;19.292;2022-11-13T09:04:55;100035.73;;;7.62;80.06
69127;BME280;56688;50.234;19.292;2022-11-13T09:07:37;100037.30;;;7.64;80.25
69127;BME280;56688;50.234;19.292;2022-11-13T09:10:19;100041.98;;;7.70;80.58
69127;BME280;56688;50.234;19.292;2022-11-13T09:13:04;100040.86;;;7.74;80.98
69127;BME280;56688;50.234;19.292;2022-11-13T09:15:46;100037.18;;;7.84;80.82
69127;BME280;56688;50.234;19.292;2022-11-13T09:18:28;100036.73;;;7.89;80.01
69127;BME280;56688;50.234;19.292;2022-11-13T09:21:11;100031.42;;;7.87;79.39
69127;BME280;56688;50.234;19.292;2022-11-13T09:23:54;100026.43;;;7.85;79.76
69127;BME280;56688;50.234;19.292;2022-11-13T09:26:36;100025.55;;;7.91;80.15
69127;BME280;56688;50.234;19.292;2022-11-13T09:29:18;100032.79;;;8.00;80.03
69127;BME280;56688;50.234;19.292;2022-11-13T09:32:02;100026.52;;;8.07;79.72
69127;BME280;56688;50.234;19.292;2022-11-13T09:34:44;100023.20;;;8.12;79.49
69127;BME280;56688;50.234;19.292;2022-11-13T09:37:26;100018.53;;;8.15;78.74
69127;BME280;56688;50.234;19.292;2022-11-13T09:40:15;100022.42;;;8.19;78.62
69127;BME280;56688;50.234;19.292;2022-11-13T09:43:11;100027.78;;;8.17;78.83
69127;BME280;56688;50.234;19.292;2022-11-13T09:46:01;100026.81;;;8.23;79.15
69127;BME280;56688;50.234;19.292;2022-11-13T09:48:54;100027.40;;;8.31;78.87
69127;BME280;56688;50.234;19.292;2022-11-13T09:51:38;100030.46;;;8.34;77.94
69127;BME280;56688;50.234;19.292;2022-11-13T09:54:20;100035.77;;;8.34;77.45
69127;BME280;56688;50.234;19.292;2022-11-13T10:00:13;100031.66;;;8.27;77.26
69127;BME280;56688;50.234;19.292;2022-11-13T10:06:37;100022.67;;;8.34;77.48
69127;BME280;56688;50.234;19.292;2022-11-13T10:09:41;100023.26;;;8.35;77.40
69127;BME280;56688;50.234;19.292;2022-11-13T10:12:29;100015.09;;;8.40;77.75
69127;BME280;56688;50.234;19.292;2022-11-13T10:15:15;100008.80;;;8.50;77.91
69127;BME280;56688;50.234;19.292;2022-11-13T10:18:04;100014.19;;;8.57;77.39
69127;BME280;56688;50.234;19.292;2022-11-13T10:20:51;100014.89;;;8.56;76.88
69127;BME280;56688;50.234;19.292;2022-11-13T10:23:37;100011.80;;;8.56;77.21
69127;BME280;56688;50.234;19.292;2022-11-13T10:26:21;100012.52;;;8.60;76.86
69127;BME280;56688;50.234;19.292;2022-11-13T10:29:16;100005.11;;;8.59;77.06
69127;BME280;56688;50.234;19.292;2022-11-13T10:32:14;100006.71;;;8.68;77.20
69127;BME280;56688;50.234;19.292;2022-11-13T10:35:16;100003.48;;;8.74;77.14
69127;BME280;56688;50.234;19.292;2022-11-13T10:40:50;99998.57;;;8.94;76.16
69127;BME280;56688;50.234;19.292;2022-11-13T10:43:32;99997.69;;;8.96;75.54
69127;BME280;56688;50.234;19.292;2022-11-13T10:46:19;99997.54;;;8.92;75.75
69127;BME280;56688;50.234;19.292;2022-11-13T10:49:19;99998.73;;;8.88;75.79
69127;BME280;56688;50.234;19.292;2022-11-13T10:52:01;100001.01;;;8.99;76.80
69127;BME280;56688;50.234;19.292;2022-11-13T10:55:11;100000.83;;;9.12;76.90
69127;BME280;56688;50.234;19.292;2022-11-13T10:57:59;100001.89;;;9.22;76.36
69127;BME280;56688;50.234;19.292;2022-11-13T11:00:42;100000.14;;;9.25;75.78
69127;BME280;56688;50.234;19.292;2022-11-13T11:03:28;99998.14;;;9.31;75.65
69127;BME280;56688;50.234;19.292;2022-11-13T11:06:10;99997.14;;;9.36;75.68
69127;BME280;56688;50.234;19.292;2022-11-13T11:08:52;99990.19;;;9.44;75.45
69127;BME280;56688;50.234;19.292;2022-11-13T11:11:34;99987.39;;;9.53;75.07
69127;BME280;56688;50.234;19.292;2022-11-13T11:14:38;99992.05;;;9.58;74.81
69127;BME280;56688;50.234;19.292;2022-11-13T11:17:26;99996.79;;;9.63;73.66
69127;BME280;56688;50.234;19.292;2022-11-13T11:26:28;99981.70;;;9.90;72.35
69127;BME280;56688;50.234;19.292;2022-11-13T11:29:20;99979.70;;;9.99;72.03
69127;BME280;56688;50.234;19.292;2022-11-13T11:32:14;99976.23;;;9.98;71.47
69127;BME280;56688;50.234;19.292;2022-11-13T11:35:05;99974.13;;;9.80;71.60
69127;BME280;56688;50.234;19.292;2022-11-13T11:37:53;99964.52;;;9.67;73.34
69127;BME280;56688;50.234;19.292;2022-11-13T11:40:42;99959.92;;;9.76;73.35
69127;BME280;56688;50.234;19.292;2022-11-13T11:43:36;99954.38;;;9.82;72.71
69127;BME280;56688;50.234;19.292;2022-11-13T11:46:25;99947.92;;;9.84;72.48
69127;BME280;56688;50.234;19.292;2022-11-13T11:49:13;99946.10;;;9.79;72.39
69127;BME280;56688;50.234;19.292;2022-11-13T11:55:04;99936.45;;;9.53;72.28
69127;BME280;56688;50.234;19.292;2022-11-13T11:57:58;99941.06;;;9.39;73.80
69127;BME280;56688;50.234;19.292;2022-11-13T12:00:52;99932.55;;;9.42;73.85
69127;BME280;56688;50.234;19.292;2022-11-13T12:04:02;99929.98;;;9.39;73.79
69127;BME280;56688;50.234;19.292;2022-11-13T12:07:00;99927.59;;;9.36;73.84
69127;BME280;56688;50.234;19.292;2022-11-13T12:18:35;99899.63;;;9.63;74.70
69127;BME280;56688;50.234;19.292;2022-11-13T12:27:12;99897.46;;;10.95;70.78
69127;BME280;56688;50.234;19.292;2022-11-13T12:35:38;99877.29;;;11.82;66.51
69127;BME280;56688;50.234;19.292;2022-11-13T12:41:18;99878.63;;;11.63;66.37
69127;BME280;56688;50.234;19.292;2022-11-13T12:44:20;99867.70;;;11.67;66.30
69127;BME280;56688;50.234;19.292;2022-11-13T12:47:06;99868.25;;;12.08;65.61
69127;BME280;56688;50.234;19.292;2022-11-13T12:50:18;99874.14;;;12.59;63.86
69127;BME280;56688;50.234;19.292;2022-11-13T12:53:05;99866.71;;;13.11;62.10
69127;BME280;56688;50.234;19.292;2022-11-13T12:55:59;99864.77;;;13.51;60.88
69127;BME280;56688;50.234;19.292;2022-11-13T12:58:53;99859.00;;;13.73;59.86
69127;BME280;56688;50.234;19.292;2022-11-13T13:02:07;99854.84;;;14.03;58.88
69127;BME280;56688;50.234;19.292;2022-11-13T13:16:28;99832.39;;;15.64;53.86
69127;BME280;56688;50.234;19.292;2022-11-13T13:19:27;99829.11;;;15.77;53.21
69127;BME280;56688;50.234;19.292;2022-11-13T13:22:22;99829.07;;;15.76;53.11
69127;BME280;56688;50.234;19.292;2022-11-13T13:25:22;99826.89;;;15.68;53.38
69127;BME280;56688;50.234;19.292;2022-11-13T13:33:56;99825.33;;;15.60;53.78
69127;BME280;56688;50.234;19.292;2022-11-13T13:36:50;99824.98;;;15.88;52.71
69127;BME280;56688;50.234;19.292;2022-11-13T13:39:54;99821.98;;;15.91;52.45
69127;BME280;56688;50.234;19.292;2022-11-13T13:45:49;99818.95;;;16.19;51.51
69127;BME280;56688;50.234;19.292;2022-11-13T13:48:37;99812.40;;;16.06;51.69
69127;BME280;56688;50.234;19.292;2022-11-13T13:54:29;99806.32;;;15.42;53.11
69127;BME280;56688;50.234;19.292;2022-11-13T13:57:15;99801.86;;;15.07;53.82
69127;BME280;56688;50.234;19.292;2022-11-13T13:59:58;99798.36;;;14.64;54.78
69127;BME280;56688;50.234;19.292;2022-11-13T14:02:45;99794.16;;;14.16;55.92
69127;BME280;56688;50.234;19.292;2022-11-13T14:05:33;99791.61;;;13.68;57.13
69127;BME280;56688;50.234;19.292;2022-11-13T14:08:20;99790.86;;;13.19;58.48
69127;BME280;56688;50.234;19.292;2022-11-13T14:11:17;99794.48;;;12.74;59.89
69127;BME280;56688;50.234;19.292;2022-11-13T14:14:13;99798.50;;;12.25;61.43
69127;BME280;56688;50.234;19.292;2022-11-13T14:16:58;99803.88;;;11.83;62.61
69127;BME280;56688;50.234;19.292;2022-11-13T14:19:49;99800.70;;;11.48;63.67
69127;BME280;56688;50.234;19.292;2022-11-13T14:22:32;99796.38;;;11.23;64.48
69127;BME280;56688;50.234;19.292;2022-11-13T14:25:25;99797.27;;;11.01;64.95
69127;BME280;56688;50.234;19.292;2022-11-13T14:28:25;99787.41;;;10.82;65.57
69127;BME280;56688;50.234;19.292;2022-11-13T14:31:11;99789.44;;;10.59;66.29
69127;BME280;56688;50.234;19.292;2022-11-13T14:33:54;99788.30;;;10.32;67.06
69127;BME280;56688;50.234;19.292;2022-11-13T14:36:38;99788.48;;;10.09;68.01
69127;BME280;56688;50.234;19.292;2022-11-13T14:39:25;99788.10;;;9.91;68.38
69127;BME280;56688;50.234;19.292;2022-11-13T14:42:15;99784.27;;;9.72;68.98
69127;BME280;56688;50.234;19.292;2022-11-13T14:45:19;99781.91;;;9.51;69.80
69127;BME280;56688;50.234;19.292;2022-11-13T14:48:20;99784.20;;;9.35;70.50
69127;BME280;56688;50.234;19.292;2022-11-13T14:51:05;99783.83;;;9.26;70.76
69127;BME280;56688;50.234;19.292;2022-11-13T14:53:57;99779.22;;;9.17;70.84
69127;BME280;56688;50.234;19.292;2022-11-13T14:56:40;99777.63;;;9.00;70.91
69127;BME280;56688;50.234;19.292;2022-11-13T14:59:26;99783.11;;;8.69;71.81
69127;BME280;56688;50.234;19.292;2022-11-13T15:02:11;99789.60;;;8.39;72.44
69127;BME280;56688;50.234;19.292;2022-11-13T15:04:53;99785.90;;;8.08;72.65
69127;BME280;56688;50.234;19.292;2022-11-13T15:07:40;99789.18;;;7.90;73.36
69127;BME280;56688;50.234;19.292;2022-11-13T15:10:25;99787.42;;;7.76;73.90
69127;BME280;56688;50.234;19.292;2022-11-13T15:13:11;99786.64;;;7.67;74.41
69127;BME280;56688;50.234;19.292;2022-11-13T15:15:54;99779.52;;;7.58;75.01
69127;BME280;56688;50.234;19.292;2022-11-13T15:18:36;99773.70;;;7.47;75.86
69127;BME280;56688;50.234;19.292;2022-11-13T15:21:19;99769.77;;;7.38;76.16
69127;BME280;56688;50.234;19.292;2022-11-13T15:24:01;99768.98;;;7.29;76.66
69127;BME280;56688;50.234;19.292;2022-11-13T15:26:43;99769.50;;;7.21;76.89
69127;BME280;56688;50.234;19.292;2022-11-13T15:29:26;99767.45;;;7.14;77.46
69127;BME280;56688;50.234;19.292;2022-11-13T15:32:11;99774.33;;;7.07;78.00
69127;BME280;56688;50.234;19.292;2022-11-13T15:34:53;99777.89;;;7.03;78.16
69127;BME280;56688;50.234;19.292;2022-11-13T15:37:36;99781.45;;;6.98;78.36
69127;BME280;56688;50.234;19.292;2022-11-13T15:40:18;99788.23;;;6.90;78.46
69127;BME280;56688;50.234;19.292;2022-11-13T15:43:01;99788.09;;;6.81;78.85